Terminal Aerodrome Forecast
Issued by NWS

Home | Current Version | Previous Version | Text Only | Print | Product List | Glossary On
Versions: 1 2 3 4 5 6 7 8 9 10 11 12 13 14 15 16 17 18 19 20
000
FTUS41 KPBZ 300300 CCA
TAFAGC
TAF COR
KAGC 300316Z 3003/3024 22012G22KT 6SM -RA OVC035
      TEMPO 3003/3005 23020G30KT 4SM -SHRASN BKN030
     FM301000 27012KT P6SM BKN025
     FM301500 27012G22KT P6SM BKN035=

USA.gov is the U.S. government's official web portal to all federal, state and local government web resources and services.